Time;durP1;ratioP1;P1;durP2;ratioP2;P2;SDS_P1;SDS_P2;PMS_P1;PMS_P2;Temp;Humidity;BMP_temperature;BMP_pressure;BME280_temperature;BME280_humidity;BME280_pressure;Samples;Min_cycle;Max_cycle;Signal;HPM_P1;HPM_P2
2022/07/01 00:00:27;;;;;;;6.18;3.70;;;;;;;22.55;75.05;94439.72;5051453;28;20327;-62
2022/07/01 00:02:52;;;;;;;7.45;3.80;;;;;;;22.55;74.68;94442.31;5051583;28;20239;-63
2022/07/01 00:05:18;;;;;;;5.75;3.25;;;;;;;22.56;74.37;94445.69;5051548;28;20258;-63
2022/07/01 00:07:44;;;;;;;5.93;3.20;;;;;;;22.63;72.97;94469.78;5051400;28;20226;-61
2022/07/01 00:10:10;;;;;;;7.95;2.95;;;;;;;22.65;73.21;94469.56;5054495;28;20216;-61
2022/07/01 00:12:35;;;;;;;5.00;3.40;;;;;;;22.61;73.82;94455.44;5055547;28;20565;-60
2022/07/01 00:15:01;;;;;;;6.82;3.03;;;;;;;22.49;75.16;94437.94;5055368;28;20638;-63
2022/07/01 00:17:27;;;;;;;5.13;3.03;;;;;;;22.48;75.48;94433.75;5055230;28;20170;-63
2022/07/01 00:19:52;;;;;;;6.53;2.92;;;;;;;22.51;75.52;94441.13;5055377;28;20210;-62
2022/07/01 00:22:18;;;;;;;8.80;2.85;;;;;;;22.54;74.26;94471.03;5054972;28;20188;-62
2022/07/01 00:24:46;;;;;;;8.27;3.75;;;;;;;22.34;75.82;94445.19;5054977;28;20293;-62
2022/07/01 00:27:12;;;;;;;5.63;3.28;;;;;;;22.48;74.34;94480.41;5055105;28;20311;-59
2022/07/01 00:29:38;;;;;;;4.15;3.30;;;;;;;22.48;74.54;94479.63;5055113;28;20212;-60
2022/07/01 00:32:03;;;;;;;6.32;3.28;;;;;;;22.41;76.05;94453.75;5055191;28;20644;-60
2022/07/01 00:34:29;;;;;;;5.07;3.00;;;;;;;22.43;75.56;94456.91;5055013;28;20726;-60
2022/07/01 00:36:54;;;;;;;3.80;3.10;;;;;;;22.41;76.04;94458.13;5055233;28;20177;-63
2022/07/01 00:39:20;;;;;;;9.07;3.30;;;;;;;22.59;73.56;94493.72;5054710;28;20194;-62
2022/07/01 00:41:45;;;;;;;7.47;3.08;;;;;;;22.49;73.87;94487.19;5054887;28;20255;-61
2022/07/01 00:44:18;;;;;;;3.53;3.13;;;;;;;22.33;74.06;94482.47;5037060;28;20201;-62
2022/07/01 00:46:45;;;;;;;3.75;3.05;;;;;;;22.29;74.26;94477.91;5054521;28;20192;-61
2022/07/01 00:49:11;;;;;;;4.32;3.08;;;;;;;22.17;75.34;94467.41;5036732;28;20174;-63
2022/07/01 00:51:37;;;;;;;6.38;3.28;;;;;;;22.02;77.18;94448.72;5054969;28;20704;-59
2022/07/01 00:54:02;;;;;;;4.07;3.03;;;;;;;22.09;76.05;94464.22;5054745;28;20194;-59
2022/07/01 00:56:35;;;;;;;4.65;2.83;;;;;;;22.05;77.64;94442.34;5054774;28;20577;-62
2022/07/01 00:59:00;;;;;;;4.45;3.58;;;;;;;22.09;76.82;94464.22;5054356;28;20206;-62
2022/07/01 01:01:26;;;;;;;4.82;3.35;;;;;;;22.00;77.72;94455.88;5054868;28;20213;-62
2022/07/01 01:03:52;;;;;;;4.85;3.90;;;;;;;21.92;78.66;94444.97;5054591;28;20199;-61
2022/07/01 01:06:18;;;;;;;3.92;3.25;;;;;;;21.91;78.33;94462.31;5054966;28;20202;-62
2022/07/01 01:08:45;;;;;;;4.60;3.35;;;;;;;21.93;77.93;94456.91;5054145;28;20192;-62
2022/07/01 01:11:11;;;;;;;3.72;3.15;;;;;;;21.84;77.79;94465.88;5054472;28;20722;-61
2022/07/01 01:13:36;;;;;;;3.25;3.00;;;;;;;21.90;77.83;94457.34;5053999;28;20261;-59
2022/07/01 01:16:01;;;;;;;3.90;3.50;;;;;;;21.85;78.77;94454.53;5054163;28;20233;-58
2022/07/01 01:18:27;;;;;;;4.32;3.33;;;;;;;21.77;78.71;94469.25;5053889;28;20208;-59
2022/07/01 01:20:53;;;;;;;4.35;3.30;;;;;;;21.67;78.86;94455.94;5052927;28;20296;-60
2022/07/01 01:23:19;;;;;;;3.50;3.22;;;;;;;21.66;79.05;94449.19;5053108;28;20166;-63
2022/07/01 01:25:47;;;;;;;5.43;3.58;;;;;;;21.62;79.39;94444.59;5054185;28;20207;-60
2022/07/01 01:28:12;;;;;;;4.72;3.50;;;;;;;21.42;80.94;94426.53;5053830;28;20198;-59
2022/07/01 01:30:38;;;;;;;5.05;3.70;;;;;;;21.38;81.62;94432.31;5053917;28;20633;-59
2022/07/01 01:33:03;;;;;;;4.55;3.70;;;;;;;21.27;82.33;94438.88;5053813;28;20251;-62
2022/07/01 01:35:29;;;;;;;5.90;3.10;;;;;;;21.30;82.33;94446.25;5054055;28;20296;-63
2022/07/01 01:37:55;;;;;;;4.50;3.30;;;;;;;21.20;83.10;94438.09;5053648;28;20698;-62
2022/07/01 01:40:20;;;;;;;4.80;3.55;;;;;;;21.24;84.07;94448.81;5035881;28;20255;-62
2022/07/01 01:42:46;;;;;;;3.50;3.20;;;;;;;21.21;84.33;94449.25;5053537;28;20272;-62
2022/07/01 01:45:12;;;;;;;4.97;3.08;;;;;;;21.26;83.98;94458.00;5053090;28;20267;-61
2022/07/01 01:47:38;;;;;;;3.60;3.30;;;;;;;21.41;83.48;94466.31;5053775;28;20173;-63
2022/07/01 01:50:06;;;;;;;5.90;3.58;;;;;;;21.33;83.28;94458.75;5053517;28;20237;-62
2022/07/01 01:52:32;;;;;;;5.20;4.05;;;;;;;21.38;82.27;94471.09;5053781;28;20660;-64
2022/07/01 01:54:58;;;;;;;5.70;3.45;;;;;;;21.46;82.01;94478.66;5053225;28;20707;-65
2022/07/01 01:57:23;;;;;;;6.45;3.72;;;;;;;21.42;82.31;94475.69;5053336;28;20181;-61
2022/07/01 01:59:48;;;;;;;5.75;3.63;;;;;;;21.23;83.70;94458.38;5053216;28;20225;-59
2022/07/01 02:02:14;;;;;;;4.03;3.40;;;;;;;21.17;84.08;94460.97;5053277;28;20552;-59
2022/07/01 02:04:40;;;;;;;5.65;3.97;;;;;;;21.43;84.20;94469.50;5035352;28;20213;-59
2022/07/01 02:07:06;;;;;;;6.38;3.40;;;;;;;21.27;83.39;94479.47;5053268;28;20196;-60
2022/07/01 02:09:32;;;;;;;4.47;3.70;;;;;;;21.13;83.86;94472.72;5052952;28;20679;-59
2022/07/01 02:11:58;;;;;;;4.90;3.95;;;;;;;21.18;84.04;94480.66;5053095;28;20185;-62
2022/07/01 02:14:23;;;;;;;5.15;3.60;;;;;;;21.16;83.79;94480.88;5052707;28;20671;-62
2022/07/01 02:16:49;;;;;;;4.55;3.47;;;;;;;21.21;84.80;94475.88;5052854;28;20679;-59
2022/07/01 02:19:14;;;;;;;6.63;2.95;;;;;;;21.38;82.05;94523.63;5052893;28;20276;-62
2022/07/01 02:21:39;;;;;;;2.83;2.63;;;;;;;21.40;80.37;94539.75;5053240;28;20567;-62
2022/07/01 02:24:05;;;;;;;5.20;3.30;;;;;;;21.24;81.32;94519.44;5052786;28;20166;-59
2022/07/01 02:26:31;;;;;;;6.40;3.45;;;;;;;21.32;80.46;94539.94;5053289;28;20208;-59
2022/07/01 02:28:56;;;;;;;5.28;3.22;;;;;;;21.34;80.30;94526.81;5034975;28;20257;-61
2022/07/01 02:31:21;;;;;;;7.70;3.60;;;;;;;21.28;80.72;94520.66;5052983;28;20227;-62
2022/07/01 02:33:48;;;;;;;4.78;3.28;;;;;;;21.40;79.38;94546.72;5052623;28;20170;-61
2022/07/01 02:36:13;;;;;;;4.53;3.33;;;;;;;21.39;79.55;94543.31;5052946;28;20205;-62
2022/07/01 02:38:39;;;;;;;4.40;3.40;;;;;;;21.28;80.13;94543.13;5034296;28;20630;-62
2022/07/01 02:41:04;;;;;;;4.47;3.25;;;;;;;21.30;80.16;94552.28;5034756;28;20202;-63
2022/07/01 02:43:30;;;;;;;6.20;3.75;;;;;;;21.24;81.38;94529.81;5052470;28;20200;-62
2022/07/01 02:45:57;;;;;;;4.28;3.15;;;;;;;21.25;81.17;94539.13;5052672;28;20656;-61
2022/07/01 02:48:23;;;;;;;3.58;3.05;;;;;;;21.17;82.16;94521.22;5052517;28;20180;-62
2022/07/01 02:50:48;;;;;;;6.93;3.47;;;;;;;21.30;81.50;94536.75;5052588;28;20197;-61
2022/07/01 02:53:14;;;;;;;7.60;3.92;;;;;;;21.15;83.38;94515.44;5052377;28;20545;-61
2022/07/01 02:55:39;;;;;;;4.25;3.70;;;;;;;21.07;84.02;94514.88;5052546;28;20209;-61
2022/07/01 02:58:04;;;;;;;6.57;3.63;;;;;;;20.99;84.65;94512.44;5034274;28;20205;-62
2022/07/01 03:00:30;;;;;;;7.13;3.72;;;;;;;21.11;84.93;94521.25;5052367;28;20232;-61
2022/07/01 03:02:56;;;;;;;5.07;4.40;;;;;;;20.98;86.02;94503.88;5051597;28;20181;-61
2022/07/01 03:05:21;;;;;;;5.28;4.13;;;;;;;21.14;86.18;94515.66;5052243;28;20292;-61
2022/07/01 03:07:53;;;;;;;5.38;4.05;;;;;;;21.15;86.50;94509.50;5052283;28;20182;-62
2022/07/01 03:10:18;;;;;;;7.43;4.18;;;;;;;20.97;88.50;94517.78;5052251;28;20296;-62
2022/07/01 03:12:44;;;;;;;4.75;4.25;;;;;;;21.09;96.75;94512.88;5052102;28;20254;-63
2022/07/01 03:15:12;;;;;;;6.15;4.53;;;;;;;21.15;91.27;94536.13;5052256;28;20667;-62
2022/07/01 03:17:40;;;;;;;5.80;4.93;;;;;;;21.27;89.10;94557.84;5033937;28;20178;-62
2022/07/01 03:20:11;;;;;;;7.93;4.35;;;;;;;21.41;87.80;94556.84;5052116;28;20721;-62
2022/07/01 03:22:37;;;;;;;10.82;5.03;;;;;;;21.34;88.70;94552.69;5052429;28;20186;-62
2022/07/01 03:27:28;;;;;;;13.73;5.38;;;;;;;21.39;89.15;94550.31;5054458;22;21079;-63
2022/07/01 03:29:54;;;;;;;5.53;4.30;;;;;;;21.43;93.07;94536.75;5051998;28;20459;-61
2022/07/01 03:32:19;;;;;;;9.18;4.90;;;;;;;21.47;91.13;94544.94;5051752;28;20227;-62
2022/07/01 03:34:49;;;;;;;6.60;5.32;;;;;;;21.47;93.83;94524.25;5052051;28;20233;-63
2022/07/01 03:37:16;;;;;;;8.27;4.75;;;;;;;22.13;100.00;94535.34;5033385;28;20190;-61
2022/07/01 03:39:43;;;;;;;9.15;4.32;;;;;;;22.47;99.48;94546.19;5033676;28;20220;-63
2022/07/01 03:42:09;;;;;;;9.73;5.15;;;;;;;22.79;96.82;94564.41;5051593;28;20717;-62
2022/07/01 03:44:35;;;;;;;8.20;4.45;;;;;;;23.05;93.04;94572.06;5051094;28;20207;-63
2022/07/01 03:47:02;;;;;;;12.93;5.10;;;;;;;23.26;89.28;94601.09;5033775;28;20608;-61
2022/07/01 03:49:27;;;;;;;8.25;4.68;;;;;;;23.37;87.96;94614.44;5051510;28;20201;-63
2022/07/01 03:51:54;;;;;;;6.35;4.75;;;;;;;23.41;79.21;94683.09;5051592;28;20239;-64
2022/07/01 03:54:37;;;;;;;6.03;4.70;;;;;;;23.17;88.02;94579.00;5033598;28;20173;-60
2022/07/01 03:57:08;;;;;;;10.85;5.07;;;;;;;22.94;86.63;94602.06;5051632;28;20256;-61
2022/07/01 03:59:39;;;;;;;6.65;4.65;;;;;;;23.02;82.76;94651.09;5033546;28;20209;-61
2022/07/01 04:02:05;;;;;;;6.82;4.63;;;;;;;22.78;83.43;94620.69;5051629;28;20174;-63
2022/07/01 04:04:32;;;;;;;5.07;4.32;;;;;;;22.86;89.08;94568.59;5058258;22;20217;-63
2022/07/01 04:06:59;;;;;;;6.25;4.03;;;;;;;23.06;87.96;94584.84;5051595;28;20181;-61
2022/07/01 04:09:26;;;;;;;8.27;4.88;;;;;;;23.41;86.40;94608.63;5051644;28;20200;-62
2022/07/01 04:11:53;;;;;;;6.90;4.43;;;;;;;23.65;83.73;94646.81;5051432;28;20211;-63
2022/07/01 04:14:18;;;;;;;10.23;4.60;;;;;;;23.80;82.16;94652.50;5051494;28;20178;-61
2022/07/01 04:16:45;;;;;;;8.52;4.72;;;;;;;23.97;80.75;94663.16;5051855;28;20184;-64
2022/07/01 04:19:11;;;;;;;7.75;4.53;;;;;;;24.17;79.36;94688.03;5051262;28;20213;-63
2022/07/01 04:24:24;;;;;;;5.93;4.85;;;;;;;24.40;77.19;94707.44;5051394;28;20204;-65
2022/07/01 04:26:50;;;;;;;8.35;4.40;;;;;;;24.38;77.12;94686.06;5051140;28;20231;-62
2022/07/01 04:29:16;;;;;;;8.68;4.13;;;;;;;24.42;76.86;94690.59;5051454;28;20178;-59
2022/07/01 04:31:41;;;;;;;9.60;4.72;;;;;;;24.51;76.18;94711.91;5051756;28;20237;-61
2022/07/01 04:34:08;;;;;;;6.55;4.57;;;;;;;24.54;75.42;94714.91;5051332;28;20567;-62
2022/07/01 04:36:34;;;;;;;7.80;4.57;;;;;;;24.59;76.41;94698.63;5050911;28;20192;-62
2022/07/01 04:39:01;;;;;;;8.27;4.88;;;;;;;24.66;75.35;94709.78;5051086;28;20427;-61
2022/07/01 04:44:10;;;;;;;7.15;4.43;;;;;;;24.63;74.70;94711.00;5051412;28;20678;-62
2022/07/01 04:46:36;;;;;;;6.47;4.60;;;;;;;24.74;73.55;94733.75;5033440;28;20185;-62
2022/07/01 04:49:02;;;;;;;8.13;4.93;;;;;;;24.83;75.37;94700.44;5051116;28;20189;-61
2022/07/01 04:51:36;;;;;;;9.02;5.22;;;;;;;24.61;74.91;94704.41;5051503;28;20568;-61
2022/07/01 04:54:03;;;;;;;5.60;5.10;;;;;;;24.69;75.12;94704.16;5051123;28;20168;-62
2022/07/01 04:56:28;;;;;;;7.60;5.40;;;;;;;24.77;74.76;94703.91;5053148;28;20229;-63
2022/07/01 04:58:57;;;;;;;11.05;5.70;;;;;;;24.71;74.42;94708.13;5054791;28;20233;-62
2022/07/01 05:01:23;;;;;;;10.15;5.80;;;;;;;24.55;73.11;94720.88;5054898;28;20679;-61
2022/07/01 05:03:48;;;;;;;9.85;5.88;;;;;;;24.23;79.73;94610.22;5054561;28;20197;-62
2022/07/01 05:06:14;;;;;;;9.60;6.35;;;;;;;24.24;79.31;94632.59;5036208;28;20218;-62
2022/07/01 05:08:39;;;;;;;8.90;5.70;;;;;;;24.17;79.59;94620.47;5054366;28;20723;-62
2022/07/01 05:11:06;;;;;;;9.05;5.43;;;;;;;24.21;78.72;94644.22;5054607;28;20201;-62
2022/07/01 05:13:33;;;;;;;16.58;8.57;;;;;;;24.36;79.70;94631.66;5054479;28;20182;-60
2022/07/01 05:15:59;;;;;;;8.80;5.38;;;;;;;24.51;77.19;94678.13;5054553;28;20204;-61
2022/07/01 05:23:52;;;;;;;11.27;5.63;;;;;;;24.11;77.39;94649.91;5054111;28;20212;-62
2022/07/01 05:26:17;;;;;;;8.15;5.45;;;;;;;24.14;78.51;94641.66;5053948;28;20637;-65
2022/07/01 05:28:44;;;;;;;7.03;5.13;;;;;;;24.16;78.67;94639.66;5054060;28;20178;-58
2022/07/01 05:31:09;;;;;;;11.05;5.72;;;;;;;24.22;77.05;94666.56;5054209;28;20201;-59
2022/07/01 05:33:35;;;;;;;7.53;4.45;;;;;;;24.24;77.62;94650.78;5035985;28;20178;-60
2022/07/01 05:36:01;;;;;;;14.45;5.88;;;;;;;24.13;79.49;94629.69;5054031;28;20692;-61
2022/07/01 05:38:27;;;;;;;13.50;6.22;;;;;;;24.19;76.30;94682.59;5053729;28;20695;-62
2022/07/01 05:40:53;;;;;;;9.38;6.43;;;;;;;23.89;76.46;94676.41;5051884;28;20252;-60
2022/07/01 05:43:19;;;;;;;10.90;5.80;;;;;;;23.76;79.12;94627.16;5034770;28;20212;-60
2022/07/01 05:45:45;;;;;;;14.73;5.95;;;;;;;23.63;80.44;94606.47;5054558;28;20232;-63
2022/07/01 05:48:11;;;;;;;12.50;6.80;;;;;;;23.67;78.58;94647.41;5053496;28;20202;-62
2022/07/01 05:50:36;;;;;;;10.18;6.32;;;;;;;23.57;78.57;94630.69;5060600;22;20221;-62
2022/07/01 05:53:02;;;;;;;6.35;5.15;;;;;;;23.47;80.27;94614.78;5053301;28;20648;-62
2022/07/01 05:55:28;;;;;;;15.20;6.60;;;;;;;23.45;80.20;94625.38;5053905;28;20209;-61
2022/07/01 05:57:54;;;;;;;12.57;5.55;;;;;;;23.42;83.33;94567.88;5053373;28;20174;-62
2022/07/01 06:00:19;;;;;;;9.15;6.20;;;;;;;23.59;83.36;94569.78;5053741;28;20210;-63
2022/07/01 06:02:45;;;;;;;8.23;6.22;;;;;;;23.83;82.50;94594.16;5035573;28;20713;-63
2022/07/01 06:05:13;;;;;;;11.10;5.72;;;;;;;23.97;81.72;94619.00;5053770;28;20216;-61
2022/07/01 06:07:40;;;;;;;9.88;6.90;;;;;;;24.05;80.05;94629.97;5052989;28;20189;-59
2022/07/01 06:10:07;;;;;;;10.15;6.78;;;;;;;24.22;78.66;94661.38;5035456;28;20205;-61
2022/07/01 06:12:33;;;;;;;12.25;5.78;;;;;;;24.52;78.75;94662.31;5052940;28;20169;-60
2022/07/01 06:14:58;;;;;;;8.52;7.10;;;;;;;24.51;78.54;94655.53;5053373;28;20567;-62
2022/07/01 06:17:24;;;;;;;10.25;6.78;;;;;;;24.70;78.04;94667.53;5053362;28;20598;-61
2022/07/01 06:19:49;;;;;;;8.07;6.95;;;;;;;24.93;76.98;94682.50;5053211;28;20308;-62
2022/07/01 06:22:17;;;;;;;9.55;6.03;;;;;;;24.97;76.95;94681.88;5035185;28;20269;-62
2022/07/01 06:24:44;;;;;;;10.85;6.88;;;;;;;25.08;76.05;94705.56;5035189;28;20632;-64
2022/07/01 06:27:10;;;;;;;10.02;6.35;;;;;;;24.92;75.92;94704.34;5052919;28;20592;-60
2022/07/01 06:29:36;;;;;;;10.63;8.05;;;;;;;25.03;76.08;94697.63;5052988;28;20204;-61
2022/07/01 06:32:03;;;;;;;21.67;12.60;;;;;;;25.13;75.56;94713.53;5052952;28;20181;-62
2022/07/01 06:34:28;;;;;;;10.98;7.40;;;;;;;25.26;75.30;94719.38;5052829;28;20209;-63
2022/07/01 06:36:54;;;;;;;14.32;7.15;;;;;;;25.31;74.32;94731.75;5052681;28;20173;-60
2022/07/01 06:39:19;;;;;;;12.15;6.50;;;;;;;25.30;72.18;94762.19;5052533;28;20814;-64
2022/07/01 06:41:45;;;;;;;12.35;7.00;;;;;;;25.08;72.25;94760.22;5052658;28;20256;-61
2022/07/01 06:44:10;;;;;;;17.27;9.75;;;;;;;24.96;76.26;94675.09;5052763;28;20190;-63
2022/07/01 06:46:36;;;;;;;13.45;8.02;;;;;;;24.88;75.73;94678.00;5052569;28;20173;-62
2022/07/01 06:49:01;;;;;;;8.50;6.03;;;;;;;24.86;75.25;94692.22;5052698;28;20192;-62
2022/07/01 06:51:27;;;;;;;11.88;6.40;;;;;;;24.86;75.48;94687.81;5052802;28;20323;-63
2022/07/01 06:53:53;;;;;;;10.02;7.65;;;;;;;24.84;73.79;94728.84;5052494;28;20243;-62
2022/07/01 06:56:18;;;;;;;12.80;7.03;;;;;;;24.92;73.85;94717.38;5052516;28;20608;-62
2022/07/01 06:58:44;;;;;;;17.48;8.38;;;;;;;24.94;73.60;94729.16;5052238;28;20749;-62
2022/07/01 07:01:10;;;;;;;9.82;7.32;;;;;;;24.89;75.34;94691.75;5052202;28;20200;-64
2022/07/01 07:03:36;;;;;;;7.05;5.97;;;;;;;24.90;76.16;94669.97;5034390;28;20643;-62
2022/07/01 07:06:02;;;;;;;13.35;8.00;;;;;;;24.93;76.73;94674.72;5052430;28;20732;-64
2022/07/01 07:08:29;;;;;;;22.23;15.57;;;;;;;25.18;74.97;94703.25;5052366;28;20185;-64
2022/07/01 07:10:55;;;;;;;12.02;8.40;;;;;;;25.19;76.79;94661.41;5052095;28;20200;-64
2022/07/01 07:13:20;;;;;;;12.52;8.20;;;;;;;25.17;74.38;94706.88;5052046;28;20173;-63
2022/07/01 07:15:46;;;;;;;18.30;7.80;;;;;;;25.32;74.18;94712.50;5051983;28;20217;-63
2022/07/01 07:18:11;;;;;;;16.05;9.27;;;;;;;25.42;73.24;94731.03;5051130;28;20647;-61
2022/07/01 07:20:37;;;;;;;12.13;6.40;;;;;;;25.69;72.72;94745.34;5052263;28;20224;-61
2022/07/01 07:23:03;;;;;;;11.32;7.47;;;;;;;25.87;72.85;94734.88;5052176;28;20170;-59
2022/07/01 07:25:28;;;;;;;15.57;7.40;;;;;;;26.09;71.82;94769.88;5052234;28;20209;-60
2022/07/01 07:27:54;;;;;;;13.32;7.53;;;;;;;26.06;71.70;94754.63;5051954;28;20181;-60
2022/07/01 07:30:19;;;;;;;12.60;7.18;;;;;;;26.06;70.40;94775.47;5051678;28;20197;-64
2022/07/01 07:32:45;;;;;;;15.02;7.60;;;;;;;25.99;69.20;94802.66;5051894;28;20173;-63
2022/07/01 07:35:11;;;;;;;14.10;6.90;;;;;;;26.04;69.46;94793.16;5052132;28;20209;-63
2022/07/01 07:37:38;;;;;;;10.05;7.03;;;;;;;26.01;67.57;94822.28;5051700;28;20188;-62
2022/07/01 07:40:09;;;;;;;15.25;7.05;;;;;;;26.07;69.88;94771.09;5051906;28;20228;-62
2022/07/01 07:42:36;;;;;;;16.23;7.60;;;;;;;26.24;71.14;94743.38;5051584;28;20212;-61
2022/07/01 07:45:03;;;;;;;14.13;7.25;;;;;;;26.37;68.58;94787.50;5052010;28;20209;-63
2022/07/01 07:47:29;;;;;;;12.88;7.40;;;;;;;26.33;67.88;94802.00;5051550;28;20309;-63
2022/07/01 07:49:54;;;;;;;16.52;7.63;;;;;;;26.34;68.66;94777.53;5051449;28;20224;-64
2022/07/01 07:52:20;;;;;;;17.35;8.30;;;;;;;26.44;66.32;94828.09;5051534;28;20253;-63
2022/07/01 07:54:45;;;;;;;12.13;7.25;;;;;;;26.44;66.46;94816.91;5051787;28;20358;-60
2022/07/01 07:57:11;;;;;;;16.42;7.68;;;;;;;26.40;66.50;94813.16;5033731;28;20181;-63
2022/07/01 07:59:36;;;;;;;11.05;7.78;;;;;;;26.40;66.10;94816.53;5051696;28;20221;-63
2022/07/01 08:02:02;;;;;;;9.63;7.38;;;;;;;26.57;65.52;94819.28;5051623;28;20170;-62
2022/07/01 08:04:28;;;;;;;19.75;7.85;;;;;;;26.69;66.43;94798.44;5051936;28;20225;-61
2022/07/01 08:06:53;;;;;;;11.27;6.90;;;;;;;26.77;65.89;94808.56;5051408;28;20174;-63
2022/07/01 08:09:19;;;;;;;13.38;7.30;;;;;;;26.87;64.14;94845.34;5051565;28;20181;-62
2022/07/01 08:11:44;;;;;;;10.30;7.38;;;;;;;26.85;62.39;94873.47;5051398;28;20174;-64
2022/07/01 08:14:10;;;;;;;10.52;5.90;;;;;;;26.96;61.89;94873.53;5051515;28;20216;-62
2022/07/01 08:16:36;;;;;;;11.27;6.75;;;;;;;27.14;61.79;94864.78;5051281;28;20647;-63
2022/07/01 08:19:02;;;;;;;11.90;7.22;;;;;;;27.38;61.67;94861.19;5051286;28;20796;-63
2022/07/01 08:21:28;;;;;;;8.80;6.10;;;;;;;27.72;62.87;94829.00;5033259;28;20289;-61
2022/07/01 08:23:54;;;;;;;8.90;5.72;;;;;;;27.75;63.30;94817.28;5033418;28;20221;-61
2022/07/01 08:26:19;;;;;;;11.73;7.00;;;;;;;27.63;61.83;94853.91;5051144;28;20202;-63
2022/07/01 08:28:45;;;;;;;11.30;6.88;;;;;;;27.68;61.11;94863.66;5051091;28;20682;-64
2022/07/01 08:31:11;;;;;;;9.80;7.05;;;;;;;27.86;59.46;94881.78;5054119;28;20205;-63
2022/07/01 08:33:39;;;;;;;12.20;7.07;;;;;;;28.09;60.97;94845.97;5037076;28;20189;-62
2022/07/01 08:36:09;;;;;;;10.95;5.97;;;;;;;28.12;61.62;94840.25;5054976;28;20202;-63
2022/07/01 08:38:35;;;;;;;8.25;6.60;;;;;;;28.09;61.56;94824.25;5054757;28;20213;-64
2022/07/01 08:41:01;;;;;;;13.98;7.57;;;;;;;27.97;58.59;94894.88;5054953;28;20197;-64
2022/07/01 08:43:27;;;;;;;9.15;6.22;;;;;;;27.92;57.42;94902.59;5054645;28;20723;-62
2022/07/01 08:45:53;;;;;;;11.00;5.90;;;;;;;28.02;56.44;94918.50;5054912;28;20189;-63
2022/07/01 08:48:20;;;;;;;10.25;5.82;;;;;;;28.26;58.20;94866.91;5061721;22;20225;-62
2022/07/01 08:50:45;;;;;;;10.93;5.85;;;;;;;28.55;57.14;94881.63;5054708;28;20198;-62
2022/07/01 08:53:12;;;;;;;10.75;5.75;;;;;;;28.56;61.48;94788.22;5055167;28;20204;-59
2022/07/01 08:58:24;;;;;;;11.05;6.00;;;;;;;28.92;59.87;94825.19;5054845;28;20236;-63
2022/07/01 09:00:50;;;;;;;9.32;5.72;;;;;;;28.83;60.36;94820.56;5054567;28;20202;-63
2022/07/01 09:03:15;;;;;;;8.65;5.90;;;;;;;29.07;58.10;94871.75;5054779;28;20236;-63
2022/07/01 09:05:52;;;;;;;16.20;5.22;;;;;;;29.30;58.24;94868.22;5054473;28;20217;-63
2022/07/01 09:08:18;;;;;;;10.57;5.75;;;;;;;29.51;58.67;94839.41;5036692;28;20529;-62
2022/07/01 09:10:45;;;;;;;11.60;5.90;;;;;;;29.63;54.63;94958.09;5054235;28;20197;-60
2022/07/01 09:13:13;;;;;;;7.40;5.75;;;;;;;29.59;52.92;94970.06;5054576;28;20182;-62
2022/07/01 09:15:40;;;;;;;16.38;8.52;;;;;;;29.78;51.74;94987.16;5054242;28;20235;-59
2022/07/01 09:18:14;;;;;;;11.38;5.28;;;;;;;30.13;52.00;94983.44;5054106;28;20186;-63
2022/07/01 09:20:50;;;;;;;6.47;5.00;;;;;;;30.07;47.72;95081.47;5054048;28;20225;-63
2022/07/01 09:23:18;;;;;;;7.18;4.47;;;;;;;29.95;46.93;95065.03;5054676;28;20712;-63
2022/07/01 09:25:49;;;;;;;7.43;4.60;;;;;;;30.03;47.35;95026.09;5053781;28;20198;-62
2022/07/01 09:28:22;;;;;;;7.43;4.82;;;;;;;30.17;50.59;94913.72;5054281;28;20194;-60
2022/07/01 09:30:50;;;;;;;7.30;4.75;;;;;;;30.24;47.74;95017.44;5053818;28;20197;-60
2022/07/01 09:33:21;;;;;;;10.30;6.68;;;;;;;30.16;48.55;94970.63;5054193;28;20182;-63
2022/07/01 09:35:51;;;;;;;7.65;5.00;;;;;;;29.89;43.63;95092.22;5054136;28;20231;-61
2022/07/01 09:38:19;;;;;;;9.65;5.35;;;;;;;30.29;46.24;94993.13;5054237;28;20560;-62
2022/07/01 09:40:47;;;;;;;6.60;5.22;;;;;;;30.58;47.92;94934.94;5053611;28;20193;-62
2022/07/01 09:43:19;;;;;;;4.82;3.97;;;;;;;30.70;44.62;95036.44;5053413;28;20182;-63
2022/07/01 09:45:51;;;;;;;8.90;5.03;;;;;;;30.82;44.78;94993.25;5053465;28;20197;-63
2022/07/01 09:48:17;;;;;;;9.15;5.47;;;;;;;30.81;46.16;94919.94;5053890;28;20238;-63
2022/07/01 09:50:43;;;;;;;19.77;6.00;;;;;;;30.63;46.39;94918.47;5053349;28;20198;-63
2022/07/01 09:53:10;;;;;;;9.77;5.90;;;;;;;30.57;44.50;94966.69;5053917;28;20189;-62
2022/07/01 09:55:37;;;;;;;12.38;6.15;;;;;;;30.46;43.16;94984.16;5035451;28;20202;-63
2022/07/01 09:58:02;;;;;;;8.40;5.78;;;;;;;30.95;44.99;94924.56;5053776;28;20201;-61
2022/07/01 10:00:31;;;;;;;10.88;5.40;;;;;;;31.28;40.69;95034.72;5035320;28;20194;-63
2022/07/01 10:02:59;;;;;;;8.73;5.35;;;;;;;31.44;40.69;94969.97;5053543;28;20652;-61
2022/07/01 10:05:27;;;;;;;7.82;4.57;;;;;;;31.57;41.20;94882.78;5053132;28;20201;-61
2022/07/01 10:07:58;;;;;;;7.53;5.40;;;;;;;31.48;40.68;94907.16;5053619;28;20216;-63
2022/07/01 10:10:42;;;;;;;7.72;4.97;;;;;;;31.73;39.84;94908.13;5053294;28;20212;-63
2022/07/01 10:13:11;;;;;;;8.75;5.22;;;;;;;31.50;39.88;94895.34;5035353;28;20186;-60
2022/07/01 10:15:40;;;;;;;5.72;5.00;;;;;;;31.83;39.44;94899.47;5053063;28;20266;-61
2022/07/01 10:18:18;;;;;;;8.35;4.93;;;;;;;32.13;38.94;94915.44;5035211;28;20196;-61
2022/07/01 10:20:46;;;;;;;8.23;4.60;;;;;;;32.21;37.49;94944.69;5052855;28;20243;-61
2022/07/01 10:23:12;;;;;;;8.75;4.30;;;;;;;32.22;33.76;95038.41;5053509;28;20215;-64
2022/07/01 10:25:46;;;;;;;6.90;4.00;;;;;;;32.52;32.04;95034.38;5052836;28;20730;-63
2022/07/01 10:28:19;;;;;;;5.57;3.63;;;;;;;32.77;34.28;94961.50;5053253;28;20194;-63
2022/07/01 10:30:52;;;;;;;5.45;3.83;;;;;;;32.80;32.01;95016.34;5034779;28;20204;-63
2022/07/01 10:33:38;;;;;;;7.32;4.75;;;;;;;32.98;34.08;94931.56;5053002;28;20181;-63
2022/07/01 10:36:16;;;;;;;5.78;4.13;;;;;;;33.37;36.94;94838.75;5034791;28;20220;-62
2022/07/01 10:39:03;;;;;;;6.25;3.70;;;;;;;33.60;36.39;94873.28;5035117;28;20738;-63
2022/07/01 10:41:59;;;;;;;4.22;3.50;;;;;;;33.69;35.19;94897.25;5052436;28;20562;-62
2022/07/01 10:44:26;;;;;;;4.63;3.50;;;;;;;33.81;33.16;94953.19;5043985;28;20568;-63
2022/07/01 10:47:05;;;;;;;14.85;3.83;;;;;;;33.91;34.13;94892.47;5034290;28;20273;-63
2022/07/01 10:49:36;;;;;;;6.28;3.65;;;;;;;33.88;35.84;94829.63;5052195;28;20255;-62
2022/07/01 10:52:15;;;;;;;5.78;3.97;;;;;;;33.24;34.14;94890.16;5052465;28;20217;-65
2022/07/01 10:54:41;;;;;;;6.05;3.92;;;;;;;33.83;35.46;94850.78;5052161;28;20247;-62
2022/07/01 10:57:15;;;;;;;7.65;4.07;;;;;;;33.94;32.09;94957.13;5052265;28;20197;-63
2022/07/01 10:59:53;;;;;;;8.10;3.95;;;;;;;33.95;33.63;94901.41;5052066;28;20213;-62
2022/07/01 11:02:29;;;;;;;6.35;3.90;;;;;;;34.23;31.83;94935.13;5052475;28;20213;-63
2022/07/01 11:04:57;;;;;;;7.05;4.25;;;;;;;34.15;33.16;94911.94;5052238;28;20577;-63
2022/07/01 11:07:32;;;;;;;5.65;4.43;;;;;;;34.10;32.47;94914.59;5052254;28;20189;-64
2022/07/01 11:09:59;;;;;;;5.82;3.80;;;;;;;33.65;31.98;94935.78;5052249;28;20197;-63
2022/07/01 11:12:27;;;;;;;4.68;3.85;;;;;;;33.87;34.37;94846.56;5052346;28;20189;-63
2022/07/01 11:14:55;;;;;;;5.75;3.97;;;;;;;33.83;36.10;94806.72;5052055;28;20631;-61
2022/07/01 11:17:21;;;;;;;5.28;3.80;;;;;;;33.97;33.64;94872.91;5052084;28;20259;-60
2022/07/01 11:19:49;;;;;;;6.78;5.55;;;;;;;34.27;33.03;94883.38;5051814;28;20267;-63
2022/07/01 11:22:19;;;;;;;7.80;5.50;;;;;;;34.55;34.82;94843.09;5052100;28;20273;-63
2022/07/01 11:24:45;;;;;;;5.82;3.50;;;;;;;34.40;29.97;94959.34;5052056;28;20204;-63
2022/07/01 11:27:10;;;;;;;5.10;4.10;;;;;;;34.55;29.52;94972.53;5051841;28;20244;-63
2022/07/01 11:29:36;;;;;;;5.40;3.72;;;;;;;34.53;30.86;94911.25;5051799;28;20197;-63
2022/07/01 11:32:02;;;;;;;4.05;3.65;;;;;;;34.87;33.43;94845.22;5033848;28;20259;-64
2022/07/01 11:34:29;;;;;;;4.43;4.03;;;;;;;34.79;28.81;95001.00;5051626;28;20648;-61
2022/07/01 11:40:06;;;;;;;8.20;4.25;;;;;;;35.04;33.11;94840.38;5051691;28;20250;-63
2022/07/01 11:42:32;;;;;;;6.22;4.10;;;;;;;35.40;33.52;94827.63;5051560;28;20185;-63
2022/07/01 11:44:58;;;;;;;5.03;4.20;;;;;;;35.72;32.15;94872.81;5051803;28;20204;-63
2022/07/01 11:47:25;;;;;;;6.10;4.50;;;;;;;35.85;31.65;94881.97;5033751;28;20224;-63
2022/07/01 11:49:51;;;;;;;6.22;4.18;;;;;;;35.95;32.09;94866.78;5051680;28;20268;-61